• Join FlightAware (Why Join?)
  • Login
  • US Flag 
09:35PM EDT


 

Airport Tracker/Info


-or-


 

Live Flight TrackerFlight Track Log ✈ UAL4983 ✈ 17-Aug-2014 ✈ CYYC - KORD

Flight Track Log - Related Links

Times and Time Zones

All times are in EDT time to prevent confusion due to time zone crossing. See the UAL4983 flight status page for this flight to view local times or setup timezone preferences in your user account.

Time Position Orientation Groundspeed Altitude Reporting Facility
EDT Latitude Longitude Course Direction KTS MPH feet Rate Location/Type
08:19AM 51.0667 -114.0333 128° Southeast 90 104 3,600  Level Edmonton Center
08:20AM 51.1167 -114.0333 360° North 150 173 5,300 1,440 Climbing Edmonton Center
08:21AM 51.1667 -114.0500 348° North 200 230 6,500 1,500 Climbing Edmonton Center
08:22AM 51.2333 -113.9833 32° Northeast 270 311 8,300 2,160 Climbing Edmonton Center
08:23AM 50.9785 -113.3252 114° Southeast  Level Estimated
08:23AM 51.1667 -113.8833 137° Southeast 290 334 10,900  Level Edmonton Center
08:24AM 50.9440 -113.1521 128° Southeast  Level Estimated
08:24AM 51.1167 -113.7667 124° Southeast 330 380 11,800  Level Edmonton Center
08:25AM 51.0500 -113.6500 132° Southeast 350 403 14,300 2,100 Climbing Edmonton Center
08:26AM 50.9833 -113.5333 132° Southeast 360 414 16,100 1,740 Climbing Edmonton Center
08:27AM 50.9167 -113.3833 125° Southeast 370 426 17,800 1,680 Climbing Edmonton Center
08:28AM 50.8667 -113.2667 124° Southeast 370 426 19,500 1,500 Climbing Edmonton Center
08:29AM 50.8000 -113.1167 125° Southeast 370 426 20,900 1,380 Climbing Edmonton Center
08:30AM 50.7500 -112.9667 118° Southeast 380 437 22,300 1,260 Climbing Edmonton Center
08:31AM 50.6833 -112.8333 128° Southeast 390 449 23,500 1,200 Climbing Edmonton Center
08:32AM 50.6333 -112.6833 118° Southeast 410 472 24,700 1,200 Climbing Edmonton Center
08:33AM 50.5500 -112.5333 131° Southeast 410 472 26,000 1,200 Climbing Edmonton Center
08:34AM 50.5000 -112.3667 115° Southeast 410 472 27,200 1,140 Climbing Edmonton Center
08:35AM 50.4333 -112.2333 128° Southeast 420 483 28,300 1,080 Climbing Edmonton Center
08:36AM 50.3667 -112.0500 120° Southeast 430 495 29,400 1,260 Climbing Edmonton Center
08:37AM 50.3167 -111.9167 120° Southeast 430 495 30,900 1,380 Climbing Edmonton Center
08:38AM 50.2333 -111.7500 128° Southeast 420 483 32,200 1,020 Climbing Edmonton Center
08:39AM 50.1833 -111.6000 117° Southeast 420 483 33,000 360 Climbing Edmonton Center
08:40AM 50.1167 -111.4333 122° Southeast 410 472 33,000  Level Edmonton Center
08:41AM 50.0500 -111.3000 128° Southeast 410 472 33,000  Level Edmonton Center
08:42AM 49.9833 -111.1333 122° Southeast 420 483 33,000  Level Edmonton Center
08:43AM 49.9333 -110.9667 115° Southeast 430 495 33,000  Level Edmonton Center
08:44AM 49.8667 -110.8000 122° Southeast 440 506 33,000  Level Edmonton Center
08:45AM 49.8167 -110.6333 115° Southeast 440 506 33,000  Level Edmonton Center
08:46AM 49.7500 -110.4667 122° Southeast 440 506 33,000  Level Edmonton Center
08:47AM 49.6667 -110.3000 128° Southeast 440 506 33,000  Level Edmonton Center
08:48AM 49.6167 -110.1333 115° Southeast 440 506 33,000  Level Edmonton Center
08:49AM 49.5500 -109.9833 124° Southeast 440 506 33,000  Level Edmonton Center
08:50AM 49.5000 -109.8167 115° Southeast 450 518 33,000  Level Edmonton Center
08:51AM 49.4167 -109.6500 128° Southeast 450 518 33,000  Level Edmonton Center
08:52AM 49.3500 -109.4833 122° Southeast 450 518 33,000  Level Edmonton Center
08:53AM 49.3000 -109.3000 113° Southeast 450 518 33,000  Level Edmonton Center
08:54AM 49.2333 -109.1333 121° Southeast 450 518 33,000  Level Edmonton Center
08:55AM 49.1667 -108.9833 124° Southeast 450 518 33,000  Level Edmonton Center
08:56AM 49.1000 -108.8167 121° Southeast 450 518 33,000  Level Edmonton Center
08:57AM 49.0333 -108.6333 119° Southeast 450 518 33,000  Level Edmonton Center
08:58AM 48.9667 -108.5000 127° Southeast 450 518 33,000  Level Edmonton Center
08:59AM 48.9167 -108.3500 117° Southeast 450 518 33,000  Level Edmonton Center
08:59AM 48.9014 -108.2481 103° East 454 522 33,000  Level Salt Lake Center
09:01AM 48.8344 -108.0861 122° Southeast 454 522 33,000  Level Salt Lake Center
09:02AM 48.7531 -107.8900 122° Southeast 454 522 33,000  Level Salt Lake Center
09:03AM 48.6925 -107.7469 123° Southeast 456 525 33,000  Level Salt Lake Center
09:04AM 48.6264 -107.5850 122° Southeast 457 526 33,000  Level Salt Lake Center
09:05AM 48.5564 -107.4228 123° Southeast 457 526 33,000  Level Salt Lake Center
09:06AM 48.4881 -107.2597 122° Southeast 458 527 33,000  Level Salt Lake Center
09:07AM 48.4175 -107.0967 123° Southeast 463 533 33,000  Level Salt Lake Center
09:08AM 48.3506 -106.9411 123° Southeast 454 522 33,000  Level Salt Lake Center
09:09AM 48.2717 -106.7528 122° Southeast 449 517 33,000  Level Salt Lake Center
09:10AM 48.2019 -106.5953 124° Southeast 449 517 33,000  Level Salt Lake Center
09:11AM 48.1353 -106.4353 122° Southeast 451 519 33,000  Level Salt Lake Center
09:11AM 48.0833 -106.3833 146° Southeast 460 529 33,000  Level Winnipeg Center
09:12AM 48.0700 -106.2778 101° East 450 518 33,000  Level Salt Lake Center
09:13AM 48.0056 -106.1203 121° Southeast 449 517 33,000  Level Salt Lake Center
09:14AM 47.9386 -105.9650 123° Southeast 449 517 33,000  Level Salt Lake Center
09:15AM 47.8736 -105.8075 122° Southeast 449 517 33,000  Level Salt Lake Center
09:16AM 47.8067 -105.6478 122° Southeast 450 518 33,000  Level Salt Lake Center
09:17AM 47.7381 -105.4889 123° Southeast 454 522 33,000  Level Salt Lake Center
09:18AM 47.6706 -105.3281 122° Southeast 456 525 33,000  Level Salt Lake Center
09:19AM 47.6022 -105.1694 123° Southeast 456 525 33,000  Level Salt Lake Center
09:20AM 47.5336 -105.0108 123° Southeast 457 526 33,000  Level Salt Lake Center
09:21AM 47.4653 -104.8536 123° Southeast 457 526 33,000  Level Salt Lake Center
09:22AM 47.3831 -104.6664 123° Southeast 457 526 33,000  Level Salt Lake Center
09:23AM 47.3167 -104.5122 122° Southeast 457 526 33,000  Level Salt Lake Center
09:24AM 47.2486 -104.3594 123° Southeast 455 524 33,000  Level Salt Lake Center
09:25AM 47.1808 -104.2072 123° Southeast 454 522 33,000  Level Salt Lake Center
09:26AM 47.1133 -104.0564 123° Southeast 452 520 33,000  Level Salt Lake Center
09:27AM 47.0464 -103.9081 123° Southeast 448 516 33,000  Level Salt Lake Center
09:28AM 46.9792 -103.7556 123° Southeast 448 516 33,000  Level Salt Lake Center
09:29AM 46.9114 -103.6061 124° Southeast 448 516 33,000 480 Level Salt Lake Center
09:30AM 46.8442 -103.4586 124° Southeast 446 513 34,000 1,200 Climbing Salt Lake Center
09:31AM 46.7925 -103.3500 125° Southeast 419 482 35,000 600 Climbing Minneapolis Center
09:32AM 46.7275 -103.2097 124° Southeast 419 482 35,000  Level Minneapolis Center
09:33AM 46.6619 -103.0681 124° Southeast 423 487 35,000  Level Minneapolis Center
09:34AM 46.5961 -102.9261 124° Southeast 428 493 35,000  Level Minneapolis Center
09:35AM 46.5294 -102.7847 124° Southeast 426 490 35,000  Level Minneapolis Center
09:36AM 46.4617 -102.6397 124° Southeast 423 487 35,000  Level Minneapolis Center
09:37AM 46.3967 -102.5036 125° Southeast 426 490 35,000  Level Minneapolis Center
09:38AM 46.3161 -102.3350 125° Southeast 425 489 35,000  Level Minneapolis Center
09:39AM 46.2489 -102.1942 125° Southeast 430 495 35,000  Level Minneapolis Center
09:40AM 46.1811 -102.0533 125° Southeast 436 502 35,000  Level Minneapolis Center
09:41AM 46.1067 -101.8994 125° Southeast 442 509 35,000  Level Minneapolis Center
09:42AM 46.0361 -101.7542 125° Southeast 442 509 35,000  Level Minneapolis Center
09:43AM 45.9653 -101.6092 125° Southeast 449 517 35,000  Level Minneapolis Center
09:44AM 45.8939 -101.4644 125° Southeast 447 514 35,000  Level Minneapolis Center
09:45AM 45.8278 -101.3122 122° Southeast 455 524 35,000  Level Minneapolis Center
09:46AM 45.7872 -101.1361 108° East 470 541 35,000  Level Minneapolis Center
09:47AM 45.7469 -100.9561 108° East 471 542 35,000  Level Minneapolis Center
09:48AM 45.7064 -100.7764 108° East 470 541 35,000  Level Minneapolis Center
09:49AM 45.6572 -100.5606 108° East 471 542 35,000  Level Minneapolis Center
09:50AM 45.6169 -100.3836 108° East 471 542 35,000  Level Minneapolis Center
09:51AM 45.5750 -100.2028 108° East 470 541 35,000  Level Minneapolis Center
09:52AM 45.5347 -100.0286 108° East 470 541 35,000  Level Minneapolis Center
09:53AM 45.4931 -99.8528 109° East 466 536 35,000  Level Minneapolis Center
09:54AM 45.4522 -99.6786 108° East 460 529 35,000  Level Minneapolis Center
09:55AM 45.4106 -99.5053 109° East 459 528 35,000  Level Minneapolis Center
09:56AM 45.3697 -99.3347 109° East 451 519 35,000  Level Minneapolis Center
09:57AM 45.3286 -99.1653 109° East 449 517 35,000  Level Minneapolis Center
09:58AM 45.2872 -98.9961 109° East 453 521 35,000  Level Minneapolis Center
09:59AM 45.2456 -98.8258 109° East 459 528 35,000  Level Minneapolis Center
10:00AM 45.1944 -98.6211 109° East 455 524 35,000  Level Minneapolis Center
10:01AM 45.1519 -98.4508 109° East 459 528 35,000  Level Minneapolis Center
10:02AM 45.1094 -98.2822 110° East 456 525 35,000  Level Minneapolis Center
10:03AM 45.0669 -98.1156 110° East 446 513 35,000  Level Minneapolis Center
10:04AM 45.0278 -97.9614 110° East 448 516 35,000  Level Minneapolis Center
10:05AM 44.9853 -97.7967 110° East 447 514 35,000  Level Minneapolis Center
10:06AM 44.9342 -97.5997 110° East 443 510 35,000  Level Minneapolis Center
10:07AM 44.8914 -97.4347 110° East 446 513 35,000  Level Minneapolis Center
10:08AM 44.8481 -97.2703 110° East 452 520 35,000  Level Minneapolis Center
10:09AM 44.8044 -97.1053 110° East 450 518 35,000  Level Minneapolis Center
10:11AM 44.7608 -96.9417 111° Southeast 446 513 35,000  Level Minneapolis Center
10:12AM 44.7169 -96.7781 111° Southeast 448 516 35,000  Level Minneapolis Center
10:13AM 44.6728 -96.6153 111° Southeast 447 514 35,000  Level Minneapolis Center
10:14AM 44.6281 -96.4519 111° Southeast 447 514 35,000  Level Minneapolis Center
10:15AM 44.5833 -96.2883 111° Southeast 447 514 35,000  Level Minneapolis Center
10:16AM 44.5292 -96.0928 111° Southeast 443 510 35,000  Level Minneapolis Center
10:17AM 44.4844 -95.9314 111° Southeast 439 505 35,000  Level Minneapolis Center
10:18AM 44.4400 -95.7725 111° Southeast 436 502 35,000  Level Minneapolis Center
10:19AM 44.3956 -95.6144 111° Southeast 435 501 35,000  Level Minneapolis Center
10:20AM 44.3497 -95.4536 112° Southeast 439 505 35,000  Level Minneapolis Center
10:21AM 44.3050 -95.2964 112° Southeast 447 514 35,000  Level Minneapolis Center
10:22AM 44.2586 -95.1347 112° Southeast 449 517 35,000  Level Minneapolis Center
10:23AM 44.2117 -94.9728 112° Southeast 450 518 35,000  Level Minneapolis Center
10:24AM 44.1547 -94.7772 112° Southeast 458 527 35,000  Level Minneapolis Center
10:25AM 44.1106 -94.6261 112° Southeast 453 521 35,000  Level Minneapolis Center
10:26AM 44.0583 -94.4492 112° Southeast 456 525 35,000  Level Minneapolis Center
10:27AM 44.0117 -94.2919 112° Southeast 455 524 35,000  Level Minneapolis Center
10:28AM 43.9614 -94.1242 113° Southeast 452 520 35,000  Level Minneapolis Center
10:29AM 43.9131 -93.9644 113° Southeast 450 518 35,000  Level Minneapolis Center
10:30AM 43.8650 -93.8056 113° Southeast 448 516 35,000  Level Minneapolis Center
10:31AM 43.8167 -93.6472 113° Southeast 449 517 35,000  Level Minneapolis Center
10:32AM 43.7581 -93.4556 113° Southeast 455 524 35,000  Level Minneapolis Center
10:33AM 43.7086 -93.2956 113° Southeast 459 528 35,000  Level Minneapolis Center
10:34AM 43.6625 -93.1456 113° Southeast 453 521 35,000  Level Minneapolis Center
10:36AM 43.5511 -92.7914 113° Southeast 450 518 35,000  Level Minneapolis Center
10:37AM 43.5008 -92.6322 113° Southeast 447 514 35,000  Level Minneapolis Center
10:38AM 43.4553 -92.4903 114° Southeast 451 519 35,000  Level Chicago Center
10:39AM 43.4050 -92.3333 114° Southeast 449 517 35,000  Level Chicago Center
10:40AM 43.3453 -92.1481 114° Southeast 451 519 35,000  Level Chicago Center
10:41AM 43.2997 -92.0078 114° Southeast 446 513 35,000 -960 Level Minneapolis Center
10:42AM 43.2392 -91.8225 114° Southeast 446 513 33,100 -1,980 Descending Minneapolis Center
10:44AM 43.1872 -91.6633 114° Southeast 458 527 31,000 -1,020 Descending Minneapolis Center
10:45AM 43.1319 -91.5033 115° Southeast 466 536 31,000  Level Minneapolis Center
10:46AM 43.0778 -91.3469 115° Southeast 464 534 31,000  Level Minneapolis Center
10:47AM 43.0214 -91.1856 115° Southeast 466 536 31,000  Level Minneapolis Center
10:48AM 42.9664 -91.0269 115° Southeast 466 536 31,000  Level Minneapolis Center
10:49AM 42.9044 -90.8506 116° Southeast 472 543 31,000  Level Chicago Center
10:50AM 42.8472 -90.6889 116° Southeast 473 544 31,000  Level Chicago Center
10:51AM 42.7900 -90.5278 116° Southeast 475 547 31,000  Level Chicago Center
10:52AM 42.7333 -90.3689 116° Southeast 473 544 31,000 -360 Level Chicago Center
10:53AM 42.6647 -90.1783 116° Southeast 470 541 30,300 -1,620 Descending Chicago Center
10:54AM 42.6067 -90.0189 116° Southeast 474 545 27,800 -2,400 Descending Chicago Center
10:55AM 42.5494 -89.8619 116° Southeast 458 527 25,400 -2,160 Descending Chicago Center
10:56AM 42.5172 -89.7039 105° East 437 503 23,400 -1,620 Descending Chicago Center
10:57AM 42.5150 -89.5419 91° East 431 496 22,100 -1,320 Descending Chicago Center
10:58AM 42.5119 -89.3808 91° East 425 489 20,800 -1,560 Descending Chicago Center
10:59AM 42.5094 -89.2244 91° East 413 475 18,900 -2,040 Descending Chicago Center
11:00AM 42.5078 -89.0472 91° East 394 453 16,600 -2,100 Descending Chicago Center
11:01AM 42.4969 -88.9039 96° East 385 443 14,600 -1,860 Descending Chicago Center
11:02AM 42.4583 -88.7736 112° Southeast 367 422 12,900 -1,680 Descending Chicago Center
11:03AM 42.4219 -88.6547 112° Southeast 330 380 11,200 -960 Descending Chicago Center
11:04AM 42.3897 -88.5486 112° Southeast 306 352 11,000 -120 Descending Chicago Center
11:05AM 42.3581 -88.4431 112° Southeast 302 348 11,000 -1,020 Level Chicago Center
11:06AM 42.2883 -88.3558 137° Southeast 295 339 9,000 -1,800 Descending Chicago Center
11:07AM 42.2022 -88.3492 177° South 284 327 7,300 -1,320 Descending Chicago Center
11:08AM 42.1328 -88.3472 179° South 241 277 6,300 -1,320 Descending Chicago Center
11:09AM 42.0733 -88.3719 197° South 235 270 4,600 -1,140 Descending Chicago Center
11:10AM 42.0194 -88.3628 173° South 197 227 4,000 -300 Descending Chicago Center
11:11AM 42.0025 -88.3019 111° Southeast 176 203 4,000  Level Chicago Center
11:12AM 42.0017 -88.2358 91° East 176 203 4,000  Level Chicago Center
11:13AM 42.0028 -88.1608 89° East 184 212 4,000 -480 Level Chicago Center
11:14AM 42.0019 -88.0903 91° East 186 214 3,100 -960 Descending Chicago Center
11:15AM 42.0028 -88.0228 89° East 185 213 2,100 -900 Descending Chicago Center
11:16AM 42.0036 -87.9667 89° East 142 163 1,300 -600 Descending Chicago Center
11:17AM 42.0036 -87.9142 90° East 136 157 900 -420 Descending Chicago Center
11:19AM 41.9793 -87.9074 143° Southeast  Level Estimated